Time;durP1;ratioP1;P1;durP2;ratioP2;P2;SDS_P1;SDS_P2;PMS_P1;PMS_P2;Temp;Humidity;BMP_temperature;BMP_pressure;BME280_temperature;BME280_humidity;BME280_pressure;Samples;Min_cycle;Max_cycle;Signal;HPM_P1;HPM_P2
2024/01/19 00:00:13;;;;;;;;;;;17.70;45.10;;;;;;7396781;19;1866;-61
2024/01/19 00:02:39;;;;;;;;;;;17.60;45.90;;;;;;7395542;19;1093;-61
2024/01/19 00:05:04;;;;;;;;;;;17.60;45.20;;;;;;7392060;19;1466;-60
2024/01/19 00:07:30;;;;;;;;;;;17.50;45.20;;;;;;7395191;19;1442;-61
2024/01/19 00:09:55;;;;;;;;;;;17.50;45.40;;;;;;7395949;19;1746;-60
2024/01/19 00:12:21;;;;;;;;;;;17.40;45.30;;;;;;7393134;19;1292;-59
2024/01/19 00:14:46;;;;;;;;;;;17.40;45.60;;;;;;7393160;19;867;-60
2024/01/19 00:17:12;;;;;;;;;;;17.40;45.60;;;;;;7392663;19;3952;-61
2024/01/19 00:19:37;;;;;;;;;;;17.40;45.50;;;;;;7397245;19;1842;-61
2024/01/19 00:22:03;;;;;;;;;;;17.40;45.60;;;;;;7394831;19;1519;-59
2024/01/19 00:24:28;;;;;;;;;;;17.40;45.60;;;;;;7397526;19;1582;-60
2024/01/19 00:26:54;;;;;;;;;;;17.40;45.50;;;;;;7393632;19;2348;-61
2024/01/19 00:29:20;;;;;;;;;;;17.50;45.40;;;;;;7393297;19;3361;-61
2024/01/19 00:31:47;;;;;;;;;;;17.50;45.30;;;;;;7396724;19;1734;-61
2024/01/19 00:34:13;;;;;;;;;;;17.50;45.40;;;;;;7393972;19;1566;-61
2024/01/19 00:36:39;;;;;;;;;;;17.50;45.30;;;;;;7393486;19;1938;-60
2024/01/19 00:39:04;;;;;;;;;;;17.60;45.20;;;;;;7396618;19;1834;-61
2024/01/19 00:41:30;;;;;;;;;;;17.50;45.10;;;;;;7395626;19;1839;-61
2024/01/19 00:43:55;;;;;;;;;;;17.60;45.20;;;;;;7391929;19;827;-61
2024/01/19 00:46:21;;;;;;;;;;;17.50;45.10;;;;;;7394513;19;747;-61
2024/01/19 00:48:47;;;;;;;;;;;17.50;45.10;;;;;;7394871;19;1535;-61
2024/01/19 00:51:12;;;;;;;;;;;17.50;45.20;;;;;;7393877;19;808;-60
2024/01/19 00:53:38;;;;;;;;;;;17.50;45.20;;;;;;7396401;19;1835;-60
2024/01/19 00:56:03;;;;;;;;;;;17.50;45.10;;;;;;7395039;19;2521;-60
2024/01/19 00:58:29;;;;;;;;;;;17.50;45.20;;;;;;7393382;19;1864;-59
2024/01/19 01:00:56;;;;;;;;;;;17.40;45.30;;;;;;7391681;19;2232;-60
2024/01/19 01:03:24;;;;;;;;;;;17.40;45.60;;;;;;7390040;19;1556;-61
2024/01/19 01:05:53;;;;;;;;;;;17.30;45.50;;;;;;7395484;19;1817;-61
2024/01/19 01:08:18;;;;;;;;;;;17.30;45.50;;;;;;7403590;19;1599;-61
2024/01/19 01:10:45;;;;;;;;;;;17.30;45.60;;;;;;7401808;19;1827;-61
2024/01/19 01:13:10;;;;;;;;;;;17.30;45.70;;;;;;7400712;19;1557;-60
2024/01/19 01:15:36;;;;;;;;;;;17.30;45.70;;;;;;7401451;19;1565;-61
2024/01/19 01:18:01;;;;;;;;;;;17.30;45.80;;;;;;7399447;19;2672;-60
2024/01/19 01:20:27;;;;;;;;;;;17.30;45.70;;;;;;7397984;19;1850;-61
2024/01/19 01:22:52;;;;;;;;;;;17.30;45.80;;;;;;7400588;19;2289;-61
2024/01/19 01:25:18;;;;;;;;;;;17.30;45.80;;;;;;7403083;19;1732;-61
2024/01/19 01:27:43;;;;;;;;;;;17.30;45.70;;;;;;7401129;19;2192;-61
2024/01/19 01:30:09;;;;;;;;;;;17.40;45.50;;;;;;7400932;19;1924;-61
2024/01/19 01:32:35;;;;;;;;;;;17.40;45.30;;;;;;7402763;19;867;-60
2024/01/19 01:35:01;;;;;;;;;;;17.50;45.30;;;;;;7397599;19;3649;-61
2024/01/19 01:37:26;;;;;;;;;;;17.50;45.20;;;;;;7399750;19;3116;-61
2024/01/19 01:39:51;;;;;;;;;;;17.50;45.30;;;;;;7400292;19;1895;-61
2024/01/19 01:42:17;;;;;;;;;;;17.50;45.20;;;;;;7398772;19;1850;-60
2024/01/19 01:44:42;;;;;;;;;;;17.60;45.30;;;;;;7401140;19;1917;-61
2024/01/19 01:47:08;;;;;;;;;;;17.50;45.20;;;;;;7397715;19;1799;-60
2024/01/19 01:49:33;;;;;;;;;;;17.40;45.40;;;;;;7396925;19;979;-61
2024/01/19 01:51:59;;;;;;;;;;;17.40;45.40;;;;;;7396770;19;3064;-61
2024/01/19 01:54:24;;;;;;;;;;;17.40;45.70;;;;;;7399085;19;1647;-61
2024/01/19 01:56:49;;;;;;;;;;;17.30;45.70;;;;;;7398603;19;2334;-61
2024/01/19 01:59:15;;;;;;;;;;;17.30;45.80;;;;;;7400663;19;1923;-61
2024/01/19 02:01:40;;;;;;;;;;;17.30;45.80;;;;;;7400921;19;1638;-61
2024/01/19 02:04:08;;;;;;;;;;;17.30;45.70;;;;;;7399333;19;1128;-61
2024/01/19 02:06:33;;;;;;;;;;;17.30;45.70;;;;;;7399529;19;2113;-61
2024/01/19 02:08:59;;;;;;;;;;;17.30;45.70;;;;;;7397186;19;1511;-61
2024/01/19 02:11:24;;;;;;;;;;;17.30;45.60;;;;;;7396939;19;1608;-61
2024/01/19 02:13:49;;;;;;;;;;;17.30;45.50;;;;;;7400230;19;1866;-60
2024/01/19 02:16:15;;;;;;;;;;;17.30;45.50;;;;;;7401581;19;1607;-59
2024/01/19 02:18:40;;;;;;;;;;;17.30;45.40;;;;;;7395896;19;1830;-60
2024/01/19 02:21:06;;;;;;;;;;;17.40;45.40;;;;;;7398596;19;1860;-61
2024/01/19 02:23:34;;;;;;;;;;;17.40;45.40;;;;;;7396297;19;943;-59
2024/01/19 02:25:59;;;;;;;;;;;17.40;45.40;;;;;;7400159;19;1553;-58
2024/01/19 02:28:25;;;;;;;;;;;17.40;45.30;;;;;;7398392;19;1637;-62
2024/01/19 02:30:50;;;;;;;;;;;17.40;45.30;;;;;;7400543;19;1911;-60
2024/01/19 02:33:17;;;;;;;;;;;17.40;45.20;;;;;;7399396;19;1376;-59
2024/01/19 02:35:42;;;;;;;;;;;17.40;45.20;;;;;;7399610;19;1531;-59
2024/01/19 02:38:08;;;;;;;;;;;17.40;45.20;;;;;;7395963;19;2437;-59
2024/01/19 02:40:33;;;;;;;;;;;17.40;45.20;;;;;;7397935;19;1857;-59
2024/01/19 02:42:59;;;;;;;;;;;17.40;45.20;;;;;;7396792;19;1556;-59
2024/01/19 02:45:24;;;;;;;;;;;17.30;45.40;;;;;;7396263;19;3933;-59
2024/01/19 02:47:50;;;;;;;;;;;17.30;45.40;;;;;;7399194;19;2185;-58
2024/01/19 02:50:15;;;;;;;;;;;17.20;45.50;;;;;;7395291;19;1642;-59
2024/01/19 02:52:40;;;;;;;;;;;17.20;45.60;;;;;;7397868;19;1831;-59
2024/01/19 02:55:06;;;;;;;;;;;17.20;45.60;;;;;;7395964;19;1448;-59
2024/01/19 02:57:32;;;;;;;;;;;17.20;45.40;;;;;;7400013;19;1903;-59
2024/01/19 02:59:57;;;;;;;;;;;17.20;45.40;;;;;;7394434;19;1849;-59
2024/01/19 03:02:23;;;;;;;;;;;17.30;45.30;;;;;;7400262;19;871;-59
2024/01/19 03:04:48;;;;;;;;;;;17.30;45.00;;;;;;7394986;19;1340;-59
2024/01/19 03:07:13;;;;;;;;;;;17.30;45.00;;;;;;7396848;19;2351;-59
2024/01/19 03:09:39;;;;;;;;;;;17.40;44.90;;;;;;7398762;19;1892;-59
2024/01/19 03:12:04;;;;;;;;;;;17.40;44.80;;;;;;7396821;19;1551;-62
2024/01/19 03:14:32;;;;;;;;;;;17.40;44.80;;;;;;7399663;19;1846;-59
2024/01/19 03:16:58;;;;;;;;;;;17.40;44.70;;;;;;7398191;19;1607;-59
2024/01/19 03:19:23;;;;;;;;;;;17.40;44.70;;;;;;7396961;19;1849;-59
2024/01/19 03:21:49;;;;;;;;;;;17.40;45.30;;;;;;7398314;19;1819;-59
2024/01/19 03:24:14;;;;;;;;;;;17.40;44.70;;;;;;7396242;19;1533;-59
2024/01/19 03:26:42;;;;;;;;;;;17.40;44.70;;;;;;7394481;19;1752;-62
2024/01/19 03:29:07;;;;;;;;;;;17.40;44.70;;;;;;7395478;19;1992;-59
2024/01/19 03:31:33;;;;;;;;;;;17.40;44.60;;;;;;7397268;19;1833;-61
2024/01/19 03:33:58;;;;;;;;;;;17.30;44.80;;;;;;7395764;19;1841;-61
2024/01/19 03:36:24;;;;;;;;;;;17.30;44.80;;;;;;7394355;19;1011;-59
2024/01/19 03:38:49;;;;;;;;;;;17.30;45.10;;;;;;7399007;19;1393;-59
2024/01/19 03:41:15;;;;;;;;;;;17.20;45.20;;;;;;7397308;19;1869;-59
2024/01/19 03:43:41;;;;;;;;;;;17.10;45.20;;;;;;7393271;19;845;-59
2024/01/19 03:46:07;;;;;;;;;;;17.10;45.20;;;;;;7395430;19;1871;-58
2024/01/19 03:48:32;;;;;;;;;;;17.10;45.20;;;;;;7394786;19;1543;-59
2024/01/19 03:50:58;;;;;;;;;;;17.10;45.30;;;;;;7394189;19;1526;-59
2024/01/19 03:53:23;;;;;;;;;;;17.10;45.10;;;;;;7392746;19;2187;-59
2024/01/19 03:55:49;;;;;;;;;;;17.20;45.10;;;;;;7394251;19;1663;-59
2024/01/19 03:58:14;;;;;;;;;;;17.20;45.00;;;;;;7394255;19;1637;-59
2024/01/19 04:00:40;;;;;;;;;;;17.30;44.80;;;;;;7395771;19;1878;-59
2024/01/19 04:03:05;;;;;;;;;;;17.30;44.80;;;;;;7394003;19;1966;-59
2024/01/19 04:05:30;;;;;;;;;;;17.40;44.70;;;;;;7393454;19;2549;-59
2024/01/19 04:07:56;;;;;;;;;;;17.40;44.70;;;;;;7394095;19;2229;-59
2024/01/19 04:10:21;;;;;;;;;;;17.40;44.50;;;;;;7395275;19;1617;-59
2024/01/19 04:12:49;;;;;;;;;;;17.40;44.40;;;;;;7393076;19;1736;-59
2024/01/19 04:15:14;;;;;;;;;;;17.40;44.40;;;;;;7393357;19;2422;-58
2024/01/19 04:17:40;;;;;;;;;;;17.40;44.40;;;;;;7395902;19;1722;-59
2024/01/19 04:20:05;;;;;;;;;;;17.40;44.50;;;;;;7393983;19;1850;-59
2024/01/19 04:22:31;;;;;;;;;;;17.40;44.50;;;;;;7395488;19;1896;-59
2024/01/19 04:24:56;;;;;;;;;;;17.40;44.60;;;;;;7392233;19;1085;-59
2024/01/19 04:27:22;;;;;;;;;;;17.30;44.50;;;;;;7392391;19;1058;-62
2024/01/19 04:29:47;;;;;;;;;;;17.20;44.50;;;;;;7395599;19;1734;-59
2024/01/19 04:32:13;;;;;;;;;;;17.20;44.80;;;;;;7397225;19;970;-59
2024/01/19 04:34:38;;;;;;;;;;;17.10;45.00;;;;;;7393413;19;2237;-59
2024/01/19 04:37:03;;;;;;;;;;;17.10;45.10;;;;;;7393849;19;1848;-59
2024/01/19 04:39:29;;;;;;;;;;;17.10;45.10;;;;;;7395326;19;1846;-59
2024/01/19 04:41:54;;;;;;;;;;;17.10;45.10;;;;;;7402431;19;1922;-59
2024/01/19 04:44:20;;;;;;;;;;;17.10;45.10;;;;;;7398514;19;3153;-59
2024/01/19 04:46:45;;;;;;;;;;;17.10;45.00;;;;;;7402248;19;1521;-59
2024/01/19 04:49:11;;;;;;;;;;;17.20;44.90;;;;;;7400724;19;1045;-59
2024/01/19 04:51:36;;;;;;;;;;;17.20;44.90;;;;;;7401394;19;1485;-59
2024/01/19 04:54:02;;;;;;;;;;;17.20;44.80;;;;;;7402486;19;1788;-59
2024/01/19 04:56:27;;;;;;;;;;;17.20;44.70;;;;;;7400870;19;899;-59
2024/01/19 04:58:53;;;;;;;;;;;17.30;44.60;;;;;;7398842;19;1657;-59
2024/01/19 05:01:18;;;;;;;;;;;17.30;44.50;;;;;;7396601;19;3089;-59
2024/01/19 05:03:43;;;;;;;;;;;17.30;44.40;;;;;;7402399;19;1754;-59
2024/01/19 05:06:11;;;;;;;;;;;17.30;44.50;;;;;;7399632;19;1173;-59
2024/01/19 05:08:37;;;;;;;;;;;17.30;44.30;;;;;;7403481;19;1629;-59
2024/01/19 05:11:03;;;;;;;;;;;17.30;44.30;;;;;;7400400;19;3576;-59
2024/01/19 05:13:28;;;;;;;;;;;17.30;44.30;;;;;;7398480;19;808;-59
2024/01/19 05:15:53;;;;;;;;;;;17.30;44.30;;;;;;7398552;19;994;-60
2024/01/19 05:18:21;;;;;;;;;;;17.30;44.30;;;;;;7398649;19;3305;-59
2024/01/19 05:20:46;;;;;;;;;;;17.20;44.40;;;;;;7397392;19;3610;-61
2024/01/19 05:23:11;;;;;;;;;;;17.20;44.60;;;;;;7400235;19;1895;-61
2024/01/19 05:25:37;;;;;;;;;;;17.20;44.70;;;;;;7398468;19;772;-58
2024/01/19 05:28:03;;;;;;;;;;;17.10;44.70;;;;;;7397884;19;873;-59
2024/01/19 05:30:28;;;;;;;;;;;17.10;44.70;;;;;;7397884;19;883;-59
2024/01/19 05:32:53;;;;;;;;;;;17.10;44.80;;;;;;7400586;19;1462;-59
2024/01/19 05:35:19;;;;;;;;;;;17.10;44.80;;;;;;7397561;19;1189;-59
2024/01/19 05:37:44;;;;;;;;;;;17.10;44.80;;;;;;7396336;19;3000;-59
2024/01/19 05:40:10;;;;;;;;;;;17.10;44.80;;;;;;7398891;19;3858;-59
2024/01/19 05:42:35;;;;;;;;;;;17.10;44.60;;;;;;7398038;19;1543;-59
2024/01/19 05:45:01;;;;;;;;;;;17.10;44.70;;;;;;7397488;19;962;-59
2024/01/19 05:47:26;;;;;;;;;;;17.20;44.80;;;;;;7397362;19;1378;-61
2024/01/19 05:49:51;;;;;;;;;;;17.20;44.60;;;;;;7398592;19;1003;-61
2024/01/19 05:52:20;;;;;;;;;;;17.20;44.60;;;;;;7394245;19;1463;-59
2024/01/19 05:54:45;;;;;;;;;;;17.20;44.70;;;;;;7400557;19;2100;-58
2024/01/19 05:57:11;;;;;;;;;;;17.20;44.60;;;;;;7400404;19;1583;-61
2024/01/19 05:59:38;;;;;;;;;;;17.20;44.60;;;;;;7399127;19;1842;-59
2024/01/19 06:02:06;;;;;;;;;;;17.30;44.50;;;;;;7401342;19;935;-58
2024/01/19 06:04:38;;;;;;;;;;;17.20;44.40;;;;;;7398529;19;2365;-60
2024/01/19 06:07:04;;;;;;;;;;;17.20;44.50;;;;;;7398449;19;1099;-60
2024/01/19 06:09:29;;;;;;;;;;;17.20;44.60;;;;;;7402088;19;1697;-59
2024/01/19 06:11:55;;;;;;;;;;;17.20;44.50;;;;;;7397708;19;1760;-61
2024/01/19 06:14:20;;;;;;;;;;;17.20;44.80;;;;;;7401896;19;1622;-61
2024/01/19 06:16:46;;;;;;;;;;;17.10;44.70;;;;;;7398193;19;1917;-60
2024/01/19 06:19:11;;;;;;;;;;;17.10;44.80;;;;;;7398866;19;1955;-61
2024/01/19 06:21:36;;;;;;;;;;;17.00;44.80;;;;;;7396887;19;1868;-61
2024/01/19 06:24:02;;;;;;;;;;;17.10;44.90;;;;;;7400336;19;1591;-61
2024/01/19 06:26:32;;;;;;;;;;;17.20;44.80;;;;;;7400264;19;1887;-61
2024/01/19 06:28:58;;;;;;;;;;;17.20;44.70;;;;;;7396606;19;935;-61
2024/01/19 06:31:23;;;;;;;;;;;17.30;44.60;;;;;;7398045;19;1010;-61
2024/01/19 06:33:48;;;;;;;;;;;17.40;44.50;;;;;;7397039;19;1547;-61
2024/01/19 06:36:14;;;;;;;;;;;17.40;44.50;;;;;;7398135;19;936;-61
2024/01/19 06:38:39;;;;;;;;;;;17.50;44.30;;;;;;7397733;19;2023;-61
2024/01/19 06:41:05;;;;;;;;;;;17.50;44.20;;;;;;7398770;19;1865;-61
2024/01/19 06:43:30;;;;;;;;;;;17.50;44.30;;;;;;7397702;19;1402;-61
2024/01/19 06:45:55;;;;;;;;;;;17.50;44.20;;;;;;7400163;19;1507;-61
2024/01/19 06:48:21;;;;;;;;;;;17.50;44.10;;;;;;7396184;19;1066;-61
2024/01/19 06:50:46;;;;;;;;;;;17.50;44.10;;;;;;7396652;19;3722;-61
2024/01/19 06:53:12;;;;;;;;;;;17.50;44.00;;;;;;7395938;19;1537;-61
2024/01/19 06:55:37;;;;;;;;;;;17.60;44.10;;;;;;7401742;19;1624;-60
2024/01/19 06:58:03;;;;;;;;;;;17.60;44.00;;;;;;7394887;19;1021;-61
2024/01/19 07:00:28;;;;;;;;;;;17.50;44.00;;;;;;7394533;19;1845;-61
2024/01/19 07:02:54;;;;;;;;;;;17.60;44.10;;;;;;7393623;19;3111;-61
2024/01/19 07:05:19;;;;;;;;;;;17.50;44.10;;;;;;7386322;19;3775;-61
2024/01/19 07:07:45;;;;;;;;;;;17.50;44.20;;;;;;7392363;19;1181;-61
2024/01/19 07:10:10;;;;;;;;;;;17.40;44.40;;;;;;7395948;19;1514;-61
2024/01/19 07:12:36;;;;;;;;;;;17.40;44.30;;;;;;7391409;19;1379;-61
2024/01/19 07:15:01;;;;;;;;;;;17.40;44.40;;;;;;7394050;19;3667;-61
2024/01/19 07:17:27;;;;;;;;;;;17.40;44.20;;;;;;7396083;19;839;-61
2024/01/19 07:19:52;;;;;;;;;;;17.50;44.30;;;;;;7396208;19;1853;-61
2024/01/19 07:22:17;;;;;;;;;;;17.50;44.20;;;;;;7397075;19;1615;-61
2024/01/19 07:24:43;;;;;;;;;;;17.50;44.10;;;;;;7398724;19;1619;-60
2024/01/19 07:27:09;;;;;;;;;;;17.50;44.00;;;;;;7393482;19;1198;-61
2024/01/19 07:29:34;;;;;;;;;;;17.50;44.10;;;;;;7397174;19;1609;-61
2024/01/19 07:32:00;;;;;;;;;;;17.50;44.00;;;;;;7393847;19;3394;-61
2024/01/19 07:34:25;;;;;;;;;;;17.60;44.10;;;;;;7395303;19;1558;-61
2024/01/19 07:36:51;;;;;;;;;;;17.60;44.00;;;;;;7393436;19;1056;-61
2024/01/19 07:39:23;;;;;;;;;;;17.60;43.80;;;;;;7397216;19;1865;-61
2024/01/19 07:41:49;;;;;;;;;;;17.60;43.80;;;;;;7399125;19;1814;-61
2024/01/19 07:44:17;;;;;;;;;;;17.60;43.80;;;;;;7393035;19;3388;-61
2024/01/19 07:46:43;;;;;;;;;;;17.60;43.80;;;;;;7395700;19;1532;-61
2024/01/19 07:49:08;;;;;;;;;;;17.60;43.80;;;;;;7394303;19;3172;-61
2024/01/19 07:51:34;;;;;;;;;;;17.60;43.80;;;;;;7398947;19;1476;-61
2024/01/19 07:53:59;;;;;;;;;;;17.60;43.70;;;;;;7395656;19;3180;-61
2024/01/19 07:56:24;;;;;;;;;;;17.60;43.70;;;;;;7393681;19;3142;-61
2024/01/19 07:58:50;;;;;;;;;;;17.50;43.90;;;;;;7395650;19;1686;-61
2024/01/19 08:01:15;;;;;;;;;;;17.50;44.00;;;;;;7393881;19;1858;-61
2024/01/19 08:03:41;;;;;;;;;;;17.50;43.90;;;;;;7394926;19;2978;-60
2024/01/19 08:06:06;;;;;;;;;;;17.50;44.10;;;;;;7393141;19;1449;-61
2024/01/19 08:08:32;;;;;;;;;;;17.50;44.10;;;;;;7393348;19;1442;-61
2024/01/19 08:10:57;;;;;;;;;;;17.50;44.20;;;;;;7394726;19;1345;-61
2024/01/19 08:13:22;;;;;;;;;;;17.50;44.10;;;;;;7393083;19;855;-61
2024/01/19 08:15:48;;;;;;;;;;;17.60;44.00;;;;;;7391283;19;979;-61
2024/01/19 08:18:13;;;;;;;;;;;17.50;43.80;;;;;;7398141;19;1857;-61
2024/01/19 08:20:39;;;;;;;;;;;17.50;43.90;;;;;;7394724;19;1859;-61
2024/01/19 08:23:04;;;;;;;;;;;17.50;43.90;;;;;;7395098;19;1539;-61
2024/01/19 08:25:29;;;;;;;;;;;17.60;44.00;;;;;;7394644;19;859;-61
2024/01/19 08:27:55;;;;;;;;;;;17.60;43.90;;;;;;7393877;19;792;-61
2024/01/19 08:30:21;;;;;;;;;;;17.70;43.90;;;;;;7393219;19;1223;-61
2024/01/19 08:32:46;;;;;;;;;;;17.70;43.80;;;;;;7395471;19;3133;-61
2024/01/19 08:35:12;;;;;;;;;;;17.60;43.70;;;;;;7396376;19;3320;-61
2024/01/19 08:37:38;;;;;;;;;;;17.60;43.80;;;;;;7393738;19;3664;-61
2024/01/19 08:40:10;;;;;;;;;;;17.60;43.90;;;;;;7394478;19;1845;-61
2024/01/19 08:42:36;;;;;;;;;;;17.60;43.70;;;;;;7392121;19;840;-61
2024/01/19 08:45:02;;;;;;;;;;;17.50;43.90;;;;;;7395655;19;1411;-61
2024/01/19 08:47:27;;;;;;;;;;;17.50;43.90;;;;;;7397985;19;1775;-61
2024/01/19 08:49:53;;;;;;;;;;;17.50;44.20;;;;;;7391995;19;850;-61
2024/01/19 08:52:18;;;;;;;;;;;17.40;44.20;;;;;;7393534;19;836;-61
2024/01/19 08:54:44;;;;;;;;;;;17.40;44.40;;;;;;7394283;19;1572;-61
2024/01/19 08:57:09;;;;;;;;;;;17.50;44.10;;;;;;7391526;19;1018;-61
2024/01/19 08:59:35;;;;;;;;;;;17.50;44.10;;;;;;7393407;19;1857;-61
2024/01/19 09:02:00;;;;;;;;;;;17.60;44.10;;;;;;7394434;19;1707;-61
2024/01/19 09:04:25;;;;;;;;;;;17.60;44.30;;;;;;7390666;19;3242;-59
2024/01/19 09:06:51;;;;;;;;;;;17.60;44.20;;;;;;7395042;19;1660;-60
2024/01/19 09:09:17;;;;;;;;;;;17.70;44.10;;;;;;7391346;19;1257;-60
2024/01/19 09:11:42;;;;;;;;;;;17.70;44.10;;;;;;7392639;19;1822;-60
2024/01/19 09:14:09;;;;;;;;;;;17.70;44.20;;;;;;7394309;19;1615;-60
2024/01/19 09:16:35;;;;;;;;;;;17.70;44.10;;;;;;7394863;19;1952;-60
2024/01/19 09:19:00;;;;;;;;;;;17.70;43.90;;;;;;7397099;19;1948;-61
2024/01/19 09:21:26;;;;;;;;;;;17.80;44.00;;;;;;7392224;19;1864;-60
2024/01/19 09:23:51;;;;;;;;;;;17.70;43.90;;;;;;7396660;19;1540;-60
2024/01/19 09:26:18;;;;;;;;;;;17.80;43.80;;;;;;7389370;19;3755;-61
2024/01/19 09:28:43;;;;;;;;;;;17.90;43.90;;;;;;7399636;19;898;-58
2024/01/19 09:31:08;;;;;;;;;;;17.90;43.70;;;;;;7401171;19;1412;-59
2024/01/19 09:33:34;;;;;;;;;;;17.90;43.70;;;;;;7398765;19;1833;-58
2024/01/19 09:35:59;;;;;;;;;;;17.80;43.70;;;;;;7397938;19;979;-58
2024/01/19 09:38:25;;;;;;;;;;;17.80;43.70;;;;;;7398185;19;1620;-58
2024/01/19 09:40:50;;;;;;;;;;;17.80;43.70;;;;;;7401290;19;1841;-58
2024/01/19 09:43:16;;;;;;;;;;;17.80;43.90;;;;;;7397102;19;1002;-59
2024/01/19 09:45:41;;;;;;;;;;;17.70;44.10;;;;;;7398441;19;1532;-59
2024/01/19 09:48:23;;;;;;;;;;;17.70;44.00;;;;;;7397839;19;785;-59
2024/01/19 09:50:51;;;;;;;;;;;17.70;44.10;;;;;;7399029;19;3118;-61
2024/01/19 09:53:25;;;;;;;;;;;17.70;44.10;;;;;;7399442;19;1542;-59
2024/01/19 09:55:51;;;;;;;;;;;17.70;44.10;;;;;;7398152;19;2415;-59
2024/01/19 09:58:16;;;;;;;;;;;17.70;44.10;;;;;;7399886;19;817;-59
2024/01/19 10:00:42;;;;;;;;;;;17.70;44.10;;;;;;7398363;19;1873;-58
2024/01/19 10:03:07;;;;;;;;;;;17.70;44.10;;;;;;7400213;19;1567;-58
2024/01/19 10:05:33;;;;;;;;;;;17.70;44.00;;;;;;7397971;19;2945;-59
2024/01/19 10:07:59;;;;;;;;;;;17.70;44.00;;;;;;7397673;19;1631;-58
2024/01/19 10:10:25;;;;;;;;;;;17.80;44.00;;;;;;7398573;19;1754;-59
2024/01/19 10:12:51;;;;;;;;;;;17.90;43.90;;;;;;7399183;19;1854;-59
2024/01/19 10:15:16;;;;;;;;;;;18.00;43.60;;;;;;7399253;19;1535;-58
2024/01/19 10:17:42;;;;;;;;;;;18.00;43.70;;;;;;7400023;19;1657;-59
2024/01/19 10:20:11;;;;;;;;;;;18.00;43.60;;;;;;7399578;19;1850;-59
2024/01/19 10:22:36;;;;;;;;;;;18.10;43.50;;;;;;7396867;19;1426;-58
2024/01/19 10:25:02;;;;;;;;;;;18.00;43.40;;;;;;7400718;19;1827;-59
2024/01/19 10:27:47;;;;;;;;;;;18.10;43.50;;;;;;7397794;19;875;-59
2024/01/19 10:30:23;;;;;;;;;;;18.10;43.50;;;;;;7396386;19;851;-59
2024/01/19 10:32:49;;;;;;;;;;;18.10;43.60;;;;;;7401934;19;1503;-59
2024/01/19 10:35:15;;;;;;;;;;;18.00;43.80;;;;;;7397176;19;2690;-58
2024/01/19 10:37:41;;;;;;;;;;;18.00;43.80;;;;;;7394508;19;1491;-59
2024/01/19 10:40:38;;;;;;;;;;;17.90;43.90;;;;;;7399874;19;1901;-59
2024/01/19 10:43:04;;;;;;;;;;;17.90;43.90;;;;;;7395568;19;1583;-59
2024/01/19 10:45:30;;;;;;;;;;;17.90;43.90;;;;;;7396112;19;1821;-59
2024/01/19 10:47:57;;;;;;;;;;;17.90;43.90;;;;;;7393961;19;3490;-59
2024/01/19 10:50:25;;;;;;;;;;;18.00;43.80;;;;;;7396327;19;1770;-59
2024/01/19 10:52:53;;;;;;;;;;;18.00;43.60;;;;;;7394366;19;3581;-59
2024/01/19 10:55:22;;;;;;;;;;;18.00;43.50;;;;;;7397355;19;907;-59
2024/01/19 10:57:48;;;;;;;;;;;18.10;43.50;;;;;;7396614;19;1617;-59
2024/01/19 11:00:23;;;;;;;;;;;18.10;43.30;;;;;;7396010;19;1848;-59
2024/01/19 11:02:54;;;;;;;;;;;18.20;43.20;;;;;;7399136;19;2549;-59
2024/01/19 11:05:20;;;;;;;;;;;18.30;43.00;;;;;;7385397;19;3694;-59
2024/01/19 11:07:46;;;;;;;;;;;18.30;43.00;;;;;;7391354;19;3604;-59
2024/01/19 11:10:12;;;;;;;;;;;18.40;43.00;;;;;;7394403;19;3380;-59
2024/01/19 11:12:38;;;;;;;;;;;18.40;43.00;;;;;;7395484;19;1793;-59
2024/01/19 11:15:03;;;;;;;;;;;18.30;42.80;;;;;;7396538;19;1710;-59
2024/01/19 11:17:29;;;;;;;;;;;18.30;42.80;;;;;;7397484;19;1521;-59
2024/01/19 11:19:55;;;;;;;;;;;18.20;42.90;;;;;;7397411;19;1949;-59
2024/01/19 11:22:20;;;;;;;;;;;18.20;42.90;;;;;;7398233;19;1569;-59
2024/01/19 11:24:45;;;;;;;;;;;18.10;42.90;;;;;;7399803;19;1526;-59
2024/01/19 11:27:24;;;;;;;;;;;18.00;43.10;;;;;;7395345;19;1638;-59
2024/01/19 11:29:50;;;;;;;;;;;17.90;43.20;;;;;;7395017;19;3084;-59
2024/01/19 11:32:15;;;;;;;;;;;17.80;43.30;;;;;;7397812;19;1105;-59
2024/01/19 11:34:41;;;;;;;;;;;17.80;43.50;;;;;;7395803;19;847;-59
2024/01/19 11:37:06;;;;;;;;;;;17.80;43.50;;;;;;7396352;19;2858;-59
2024/01/19 11:39:39;;;;;;;;;;;17.80;43.60;;;;;;7399703;19;1842;-59
2024/01/19 11:42:05;;;;;;;;;;;17.80;43.60;;;;;;7394950;19;935;-59
2024/01/19 11:44:57;;;;;;;;;;;17.80;43.50;;;;;;7394625;19;3610;-59
2024/01/19 11:47:35;;;;;;;;;;;17.90;43.70;;;;;;7393996;19;3815;-59
2024/01/19 11:50:01;;;;;;;;;;;17.90;43.50;;;;;;7394214;19;3599;-59
2024/01/19 11:52:32;;;;;;;;;;;17.90;43.30;;;;;;7396471;19;2057;-59
2024/01/19 11:54:57;;;;;;;;;;;17.90;43.40;;;;;;7395756;19;2975;-59
2024/01/19 11:57:26;;;;;;;;;;;17.90;43.50;;;;;;7394970;19;1877;-59
2024/01/19 11:59:52;;;;;;;;;;;17.90;43.50;;;;;;7398685;19;1834;-59
2024/01/19 12:02:30;;;;;;;;;;;17.80;43.60;;;;;;7394735;19;3694;-59
2024/01/19 12:04:59;;;;;;;;;;;17.80;43.90;;;;;;7397141;19;1832;-59
2024/01/19 12:07:25;;;;;;;;;;;17.70;43.90;;;;;;7395214;19;4013;-59
2024/01/19 12:10:06;;;;;;;;;;;17.60;44.00;;;;;;7391950;19;1297;-59
2024/01/19 12:12:32;;;;;;;;;;;17.50;44.10;;;;;;7392337;19;3076;-60
2024/01/19 12:14:58;;;;;;;;;;;17.40;44.30;;;;;;7394728;19;808;-59
2024/01/19 12:17:23;;;;;;;;;;;17.30;44.40;;;;;;7393570;19;3638;-59
2024/01/19 12:19:52;;;;;;;;;;;17.20;44.80;;;;;;7393700;19;3112;-60
2024/01/19 12:22:17;;;;;;;;;;;17.10;44.90;;;;;;7395012;19;1629;-60
2024/01/19 12:24:43;;;;;;;;;;;17.10;45.00;;;;;;7395982;19;1643;-60
2024/01/19 12:27:08;;;;;;;;;;;17.10;45.00;;;;;;7396915;19;1751;-60
2024/01/19 12:29:37;;;;;;;;;;;17.10;44.90;;;;;;7392994;19;821;-60
2024/01/19 12:32:09;;;;;;;;;;;17.10;44.90;;;;;;7394497;19;2097;-59
2024/01/19 12:34:35;;;;;;;;;;;17.10;45.00;;;;;;7391705;19;2750;-60
2024/01/19 12:37:00;;;;;;;;;;;17.10;45.00;;;;;;7394628;19;1598;-59
2024/01/19 12:39:27;;;;;;;;;;;17.10;45.10;;;;;;7396607;19;1428;-59
2024/01/19 12:41:59;;;;;;;;;;;17.00;45.10;;;;;;7394488;19;1696;-59
2024/01/19 12:44:25;;;;;;;;;;;17.00;45.00;;;;;;7393591;19;3024;-59
2024/01/19 12:46:50;;;;;;;;;;;17.10;45.10;;;;;;7395447;19;1794;-59
2024/01/19 12:49:16;;;;;;;;;;;17.00;45.00;;;;;;7391930;19;859;-59
2024/01/19 12:51:42;;;;;;;;;;;17.00;45.10;;;;;;7393175;19;2033;-59
2024/01/19 12:54:08;;;;;;;;;;;17.00;45.00;;;;;;7392744;19;2494;-59
2024/01/19 12:56:34;;;;;;;;;;;17.00;45.10;;;;;;7393258;19;3315;-59
2024/01/19 12:59:09;;;;;;;;;;;17.00;45.20;;;;;;7387108;19;3844;-59
2024/01/19 13:01:35;;;;;;;;;;;16.90;45.30;;;;;;7385958;19;3969;-59
2024/01/19 13:04:01;;;;;;;;;;;16.90;45.40;;;;;;7399826;19;3679;-59
2024/01/19 13:06:26;;;;;;;;;;;16.90;45.60;;;;;;7400896;19;803;-60
2024/01/19 13:08:52;;;;;;;;;;;16.80;45.50;;;;;;7401524;19;3456;-59
2024/01/19 13:11:18;;;;;;;;;;;16.80;45.60;;;;;;7397718;19;1348;-60
2024/01/19 13:13:44;;;;;;;;;;;16.70;45.50;;;;;;7398123;19;1752;-60
2024/01/19 13:16:12;;;;;;;;;;;16.80;45.60;;;;;;7399369;19;763;-59
2024/01/19 13:18:41;;;;;;;;;;;16.80;45.40;;;;;;7400086;19;1539;-60
2024/01/19 13:21:10;;;;;;;;;;;16.90;45.40;;;;;;7400722;19;1838;-59
2024/01/19 13:23:36;;;;;;;;;;;17.00;45.60;;;;;;7398005;19;1852;-60
2024/01/19 13:26:01;;;;;;;;;;;17.10;45.20;;;;;;7404433;19;1693;-60
2024/01/19 13:28:27;;;;;;;;;;;17.20;45.20;;;;;;7398676;19;1602;-59
2024/01/19 13:30:52;;;;;;;;;;;17.20;44.90;;;;;;7399419;19;1765;-60
2024/01/19 13:33:18;;;;;;;;;;;17.20;44.70;;;;;;7398463;19;847;-60
2024/01/19 13:35:46;;;;;;;;;;;17.30;44.80;;;;;;7401252;19;1774;-60
2024/01/19 13:38:11;;;;;;;;;;;17.30;44.90;;;;;;7400545;19;1536;-60
2024/01/19 13:40:37;;;;;;;;;;;17.30;44.70;;;;;;7396793;19;1854;-60
2024/01/19 13:43:03;;;;;;;;;;;17.30;44.90;;;;;;7397639;19;910;-60
2024/01/19 13:45:28;;;;;;;;;;;17.30;44.80;;;;;;7397693;19;978;-60
2024/01/19 13:47:54;;;;;;;;;;;17.30;44.70;;;;;;7401039;19;3727;-60
2024/01/19 13:50:19;;;;;;;;;;;17.40;44.80;;;;;;7401147;19;1761;-60
2024/01/19 13:52:45;;;;;;;;;;;17.30;45.00;;;;;;7401237;19;1511;-60
2024/01/19 13:55:10;;;;;;;;;;;17.30;45.20;;;;;;7399429;19;817;-60
2024/01/19 13:57:36;;;;;;;;;;;17.30;45.30;;;;;;7400822;19;1625;-60
2024/01/19 14:00:02;;;;;;;;;;;17.30;45.10;;;;;;7398656;19;2199;-60
2024/01/19 14:02:27;;;;;;;;;;;17.30;44.90;;;;;;7401124;19;840;-60
2024/01/19 14:04:53;;;;;;;;;;;17.40;44.70;;;;;;7399336;19;1835;-60
2024/01/19 14:07:20;;;;;;;;;;;17.40;44.80;;;;;;7400165;19;1639;-60
2024/01/19 14:09:46;;;;;;;;;;;17.40;45.00;;;;;;7399075;19;3170;-59
2024/01/19 14:12:12;;;;;;;;;;;17.40;44.90;;;;;;7391648;19;3263;-59
2024/01/19 14:14:37;;;;;;;;;;;17.40;45.10;;;;;;7398611;19;1944;-60
2024/01/19 14:17:03;;;;;;;;;;;17.40;45.10;;;;;;7396959;19;1901;-60
2024/01/19 14:19:28;;;;;;;;;;;17.40;45.20;;;;;;7399679;19;1587;-60
2024/01/19 14:21:54;;;;;;;;;;;17.40;45.10;;;;;;7397774;19;1846;-60
2024/01/19 14:24:19;;;;;;;;;;;17.40;45.10;;;;;;7402205;19;970;-59